Grizzly, Oregon
Current Conditions -  °F | °C
As of 3:35 AM on Tuesday 21 Oct 2014 (Local Time) from KS39 Reporting Station
Clear Clear  
Wind Chill:   Ceiling: Unl
Heat Index:   Visibility: 10mi
Dew Point:   Wind: 0mph
Humidity: 93%   Direction: NA
Pressure: 29.94"   Gusts: NA
Location:  44.5°N, 120.92°W
Report Text: KS39 211035Z 00000KT 10SM CLR 04/03 A2994 RMK AO2 CRANE OPERATIONS 1 MILE NE OF AIRPORT OPERATING AT APP. 150 FT AGL.
Loading
Personal Weather Stations






























Interactive Weather Map
Tropical Storm Tracking
New forecast layout! Learn more

10-Day Weather Forecast

Advertisements
Track Severe Weather on mobile